TN47 weather

Needham's Airport
Arlington, Tennessee, United States

Public forecast

Using degrees Fahrenheit for public forecast. Weather courtesy of forecast.io.

Closest aviation weather report (METAR) to Needham's Airport

Closest report is Millington-Memphis Airport, 7.5 nm (13.9 km) WNW. Retrieved 2019/10/17 11:50 UTC (15 minutes ago):

KNQA 171150Z 02003KT 10SM CLR 05/05 A3010

Closest aviation forecast (TAF) to Needham's Airport

Closest forecast is Memphis International Airport, 18.8 nm (34.8 km) SW. Retrieved 2019/10/17 12:22 UTC (0 seconds ago):

TAF KMEM 171120Z 1712/1818 06006KT P6SM FEW250 FM171700 36006KT P6SM SCT250 FM180200 08004KT P6SM BKN250 FM181500 11007KT P6SM SCT250